Language selection

My Weather Profile Weather Topics  | 

Central Brevoort - southern half: Past 24 Hour Conditions

 

Cartwright Airport

08:00 AM AST 30 November 2022
Disclaimer

This table is a summary of hourly weather conditions for the past 24 hours.
Please note that these observations might not always be representative of weather conditions over their associated marine area.

Date / Time
(AST)
Wind(knots) Conditions Visibility(km) Pressure(kPa) Air tempC) Relative humidity(%) Dew pointC) Wind Chill
30 November 2022
8:00 WNW 18 gust 30 Partly Cloudy 16 102.4 -7 72 -12 -16
7:00 WNW 17 gust 27 Clear 16 102.3 -7 74 -11 -16
6:00 WNW 17 gust 27 Clear 16 102.2 -8 74 -12 -17
5:00 WNW 18 gust 26 Clear 16 102.1 -7 71 -11 -16
4:00 WNW 18 gust 27 Clear 16 102.0 -7 72 -11 -16
3:00 WNW 18 gust 28 Cloudy 16 101.9 -7 73 -11 -16
2:00 WNW 18 gust 28 Mostly Cloudy 16 101.7 -7 73 -11 -16
1:00 W 20 gust 28 Cloudy 16 101.6 -7 72 -11 -16
0:00 WNW 19 gust 28 Cloudy 16 101.5 -7 72 -11 -16
29 November 2022
23:00 WNW 17 gust 29 Cloudy 16 101.4 -8 74 -11 -17
22:00 W 17 gust 25 Mostly Cloudy 16 101.3 -8 72 -12 -17
21:00 W 14 gust 24 Cloudy 16 101.3 -8 72 -12 -16
20:00 W 15 gust 24 Mainly Clear 16 101.2 -8 71 -12 -17
19:00 W 14 gust 23 Cloudy 16 101.2 -8 72 -12 -16
18:00 WNW 13 gust 21 Cloudy 16 101.2 -8 71 -13 -16
17:00 WNW 12 gust 21 Cloudy 16 101.1 -8 72 -13 -16
16:00 WNW 17 gust 26 Light Snow 16 101.1 -9 71 -13 -18
15:00 WNW 17 gust 29 Light Snow 16 101.0 -9 71 -13 -18
14:00 WNW 18 gust 28 Cloudy 16 100.8 -8 71 -13 -18
13:00 WNW 19 gust 32 Cloudy 16 100.7 -8 72 -12 -17
12:00 WNW 18 gust 29 Cloudy 16 100.6 -7 71 -12 -16
11:00 NW 19 gust 29 Cloudy 16 100.5 -7 73 -11 -16
10:00 WNW 17 gust 26 Cloudy 16 100.5 -7 73 -11 -16
9:00 W 15 gust 25 Cloudy 16 100.4 -8 75 -11 -16
8:00 WNW 20 gust 34 Cloudy 16 100.3 -8 75 -11 -17

Zoom-in to make a selection

Map of Atlantic - Labrador marine weather areas Kangiqsualujjuaq Airport Cape Kakkiviak Cape Kiglapait Cartwright Airport CFB Goose Bay Hopedale Mary's Harbour Nain Airport Makkovik Airport Saglek Tukialik Bay
Legend:
buoy Buoy
land station Land Station

Atlantic - Labrador Area

Another Region

What we are doing

Date modified: